createdAt,value
2018-01-08T00:01:27.920Z,16.07
2018-01-08T00:03:57.865Z,14.10
2018-01-08T00:06:27.597Z,17.30
2018-01-08T00:09:08.566Z,12.13
2018-01-08T00:11:38.534Z,9.97
2018-01-08T00:14:10.014Z,14.20
2018-01-08T00:16:40.230Z,14.23
2018-01-08T00:19:10.470Z,9.83
2018-01-08T00:21:44.975Z,14.00
2018-01-08T00:24:18.367Z,14.73
2018-01-08T00:26:47.178Z,8.93
2018-01-08T00:29:29.798Z,15.10
2018-01-08T00:32:00.670Z,15.27
2018-01-08T00:34:31.027Z,12.03
2018-01-08T00:36:59.801Z,13.83
2018-01-08T00:39:28.268Z,15.17
2018-01-08T00:41:59.635Z,12.93
2018-01-08T00:44:28.951Z,12.93
2018-01-08T00:46:57.218Z,12.03
2018-01-08T00:49:25.751Z,15.53
2018-01-08T00:51:54.854Z,9.10
2018-01-08T00:54:23.005Z,19.83
2018-01-08T00:57:02.777Z,11.13
2018-01-08T00:59:30.896Z,12.33
2018-01-08T01:02:01.606Z,13.37
2018-01-08T01:04:30.751Z,9.70
2018-01-08T01:07:02.000Z,11.60
2018-01-08T01:09:45.858Z,8.33
2018-01-08T01:12:52.111Z,14.03
2018-01-08T01:15:20.672Z,14.33
2018-01-08T01:17:49.608Z,12.60
2018-01-08T01:20:21.798Z,16.50
2018-01-08T01:22:51.273Z,15.37
2018-01-08T01:25:22.947Z,15.63
2018-01-08T01:28:02.473Z,10.57
2018-01-08T01:30:34.244Z,14.57
2018-01-08T01:33:03.101Z,14.60
2018-01-08T01:35:35.045Z,18.17
2018-01-08T01:38:10.019Z,13.53
2018-01-08T01:40:39.473Z,10.50
2018-01-08T01:43:07.621Z,14.60
2018-01-08T01:45:36.550Z,14.30
2018-01-08T01:48:09.367Z,7.90
2018-01-08T01:50:38.477Z,13.13
2018-01-08T01:53:10.020Z,14.30
2018-01-08T01:55:39.747Z,10.40
2018-01-08T01:58:08.768Z,19.80
2018-01-08T02:00:38.458Z,13.63
2018-01-08T02:03:09.542Z,13.70
2018-01-08T02:05:38.140Z,14.17
2018-01-08T02:08:07.921Z,14.97
2018-01-08T02:10:50.925Z,11.27
2018-01-08T02:13:24.663Z,12.27
2018-01-08T02:15:54.071Z,12.57
2018-01-08T02:18:24.490Z,19.50
2018-01-08T02:20:59.517Z,14.43
2018-01-08T02:23:33.520Z,15.73
2018-01-08T02:26:05.438Z,13.23
2018-01-08T02:28:35.418Z,14.17
2018-01-08T02:31:26.112Z,11.33
2018-01-08T02:33:58.368Z,12.97
2018-01-08T02:36:28.291Z,15.43
2018-01-08T02:38:57.713Z,14.73
2018-01-08T02:41:28.227Z,13.27
2018-01-08T02:44:09.008Z,14.93
2018-01-08T02:46:37.860Z,14.87
2018-01-08T02:49:06.343Z,12.93
2018-01-08T02:51:49.533Z,13.93
2018-01-08T02:54:19.249Z,13.67
2018-01-08T02:56:47.364Z,14.60
2018-01-08T02:59:19.034Z,13.83
2018-01-08T03:01:47.315Z,13.47
2018-01-08T03:04:16.906Z,12.17
2018-01-08T03:06:45.806Z,16.13
2018-01-08T03:09:13.966Z,13.97
2018-01-08T03:14:20.413Z,13.53
2018-01-08T03:16:50.903Z,9.80
2018-01-08T03:19:25.303Z,16.10
2018-01-08T03:21:59.121Z,9.60
2018-01-08T03:24:31.593Z,12.10
2018-01-08T03:27:01.363Z,12.23
2018-01-08T03:29:31.611Z,12.77
2018-01-08T03:32:12.813Z,10.83
2018-01-08T03:34:44.062Z,12.03
2018-01-08T03:37:12.964Z,11.17
2018-01-08T03:39:42.862Z,12.43
2018-01-08T03:42:53.917Z,12.33
2018-01-08T03:45:22.035Z,11.23
2018-01-08T03:47:52.234Z,12.87
2018-01-08T03:50:23.317Z,10.00
2018-01-08T03:52:55.214Z,14.47
2018-01-08T03:55:24.961Z,12.20
2018-01-08T03:57:54.545Z,10.87
2018-01-08T04:00:24.068Z,12.47
2018-01-08T04:02:53.204Z,14.67
2018-01-08T04:05:22.468Z,16.07
2018-01-08T04:07:51.332Z,17.00
2018-01-08T04:10:21.771Z,13.70
2018-01-08T04:13:26.881Z,11.87
2018-01-08T04:15:55.762Z,12.47
2018-01-08T04:18:26.974Z,16.10
2018-01-08T04:20:57.835Z,15.83
2018-01-08T04:23:26.152Z,11.27
2018-01-08T04:25:56.721Z,13.80
2018-01-08T04:28:26.146Z,12.70
2018-01-08T04:30:59.934Z,8.80
2018-01-08T04:33:32.100Z,10.80
2018-01-08T04:36:03.801Z,10.83
2018-01-08T04:38:34.568Z,9.73
2018-01-08T04:41:06.606Z,15.37
2018-01-08T04:43:36.990Z,10.23
2018-01-08T04:46:05.694Z,11.00
2018-01-08T04:48:36.197Z,10.07
2018-01-08T04:51:06.926Z,13.17
2018-01-08T04:53:49.896Z,9.43
2018-01-08T04:56:20.059Z,14.33
2018-01-08T04:59:11.159Z,14.40
2018-01-08T05:01:46.620Z,11.90
2018-01-08T05:04:18.302Z,12.37
2018-01-08T05:06:48.229Z,11.63
2018-01-08T05:09:18.770Z,14.53
2018-01-08T05:11:51.102Z,14.90
2018-01-08T05:14:23.048Z,14.33
2018-01-08T05:16:52.756Z,13.37
2018-01-08T05:19:30.078Z,16.40
2018-01-08T05:21:58.900Z,10.97
2018-01-08T05:24:29.935Z,16.37
2018-01-08T05:27:03.052Z,13.83
2018-01-08T05:29:34.910Z,12.70
2018-01-08T05:32:13.330Z,14.60
2018-01-08T05:34:43.221Z,14.33
2018-01-08T05:37:12.162Z,16.30
2018-01-08T05:39:47.787Z,14.60
2018-01-08T05:42:28.798Z,12.43
2018-01-08T05:44:57.854Z,15.10
2018-01-08T05:47:26.002Z,14.70
2018-01-08T05:49:54.805Z,14.27
2018-01-08T05:52:29.697Z,13.30
2018-01-08T05:55:00.651Z,13.87
2018-01-08T05:57:31.310Z,11.53
2018-01-08T06:00:00.259Z,13.10
2018-01-08T06:02:29.628Z,14.73
2018-01-08T06:05:00.848Z,12.00
2018-01-08T06:07:31.656Z,14.13
2018-01-08T06:10:04.296Z,13.20
2018-01-08T06:12:45.717Z,14.63
2018-01-08T06:15:27.355Z,12.13
2018-01-08T06:17:58.046Z,15.27
2018-01-08T06:20:35.851Z,16.53
2018-01-08T06:23:05.740Z,13.87
2018-01-08T06:25:38.312Z,14.03
2018-01-08T06:28:09.976Z,16.10
2018-01-08T06:30:43.426Z,12.67
2018-01-08T06:33:13.704Z,12.27
2018-01-08T06:35:49.121Z,15.37
2018-01-08T06:38:18.722Z,14.17
2018-01-08T06:40:49.246Z,13.17
2018-01-08T06:43:19.124Z,16.80
2018-01-08T06:45:49.582Z,15.57
2018-01-08T06:48:18.719Z,12.10
2018-01-08T06:50:56.616Z,14.33
2018-01-08T06:53:28.367Z,20.07
2018-01-08T06:56:11.252Z,15.03
2018-01-08T07:01:23.688Z,13.30
2018-01-08T07:03:54.780Z,15.70
2018-01-08T07:06:24.361Z,17.23
2018-01-08T07:09:02.134Z,15.60
2018-01-08T07:11:33.013Z,18.60
2018-01-08T07:14:08.237Z,16.73
2018-01-08T07:16:38.376Z,18.97
2018-01-08T07:21:51.224Z,15.27
2018-01-08T07:24:20.073Z,16.77
2018-01-08T07:26:50.083Z,19.50
2018-01-08T07:29:22.984Z,17.30
2018-01-08T07:31:56.968Z,16.00
2018-01-08T07:34:29.623Z,22.10
2018-01-08T07:37:02.278Z,21.77
2018-01-08T07:39:38.511Z,14.80
2018-01-08T07:42:07.427Z,17.43
2018-01-08T07:44:37.347Z,20.23
2018-01-08T07:47:07.186Z,16.67
2018-01-08T07:49:36.133Z,18.67
2018-01-08T07:52:13.094Z,19.57
2018-01-08T07:54:42.264Z,15.87
2018-01-08T07:57:11.592Z,19.93
2018-01-08T07:59:41.298Z,23.90
2018-01-08T08:02:17.033Z,17.90
2018-01-08T08:04:47.808Z,20.97
2018-01-08T08:07:20.947Z,17.73
2018-01-08T08:09:55.844Z,20.57
2018-01-08T08:12:24.931Z,19.50
2018-01-08T08:15:17.798Z,17.20
2018-01-08T08:17:48.738Z,18.60
2018-01-08T08:20:17.693Z,17.37
2018-01-08T08:22:47.747Z,18.87
2018-01-08T08:25:25.055Z,23.90
2018-01-08T08:27:55.062Z,18.23
2018-01-08T08:30:46.246Z,20.27
2018-01-08T08:33:26.241Z,20.13
2018-01-08T08:35:56.250Z,21.67
2018-01-08T08:38:28.148Z,24.43
2018-01-08T08:41:01.814Z,18.63
2018-01-08T08:46:17.078Z,20.77
2018-01-08T08:48:46.940Z,18.30
2018-01-08T08:51:24.256Z,18.50
2018-01-08T08:54:00.230Z,21.43
2018-01-08T08:56:35.542Z,18.50
2018-01-08T08:59:08.784Z,22.73
2018-01-08T09:01:37.923Z,20.03
2018-01-08T09:04:15.552Z,20.87
2018-01-08T09:06:49.633Z,20.27
2018-01-08T09:09:18.439Z,18.67
2018-01-08T09:11:47.769Z,16.90
2018-01-08T09:14:27.761Z,18.53
2018-01-08T09:17:04.807Z,20.43
2018-01-08T09:19:34.332Z,17.23
2018-01-08T09:22:05.424Z,19.23
2018-01-08T09:24:36.576Z,21.80
2018-01-08T09:27:06.129Z,19.00
2018-01-08T09:29:37.337Z,16.70
2018-01-08T09:32:09.546Z,17.00
2018-01-08T09:34:39.466Z,17.80
2018-01-08T09:37:11.245Z,20.17
2018-01-08T09:39:43.302Z,20.07
2018-01-08T09:42:22.055Z,17.97
2018-01-08T09:44:54.941Z,18.37
2018-01-08T09:47:27.143Z,17.63
2018-01-08T09:49:59.491Z,20.37
2018-01-08T09:52:34.854Z,20.13
2018-01-08T09:55:04.198Z,18.27
2018-01-08T09:57:35.951Z,17.00
2018-01-08T10:00:05.498Z,17.37
2018-01-08T10:02:48.397Z,19.70
2018-01-08T10:05:29.662Z,17.13
2018-01-08T10:08:17.616Z,17.60
2018-01-08T10:11:05.315Z,21.87
2018-01-08T10:13:53.671Z,20.87
2018-01-08T10:16:37.399Z,18.13
2018-01-08T10:19:28.135Z,21.33
2018-01-08T10:22:01.719Z,20.07
2018-01-08T10:24:29.980Z,18.80
2018-01-08T10:27:01.626Z,21.87
2018-01-08T10:29:30.394Z,16.80
2018-01-08T10:31:59.434Z,19.13
2018-01-08T10:34:31.767Z,19.03
2018-01-08T10:37:01.115Z,20.53
2018-01-08T10:39:52.909Z,18.50
2018-01-08T10:42:30.224Z,18.80
2018-01-08T10:45:08.948Z,21.87
2018-01-08T10:47:51.102Z,18.77
2018-01-08T10:50:28.064Z,20.30
2018-01-08T10:53:00.221Z,18.00
2018-01-08T10:55:32.362Z,21.60
2018-01-08T10:58:09.191Z,16.20
2018-01-08T11:00:45.271Z,20.13
2018-01-08T11:03:24.769Z,19.57
2018-01-08T11:06:01.377Z,16.57
2018-01-08T11:08:33.613Z,15.80
2018-01-08T11:11:06.065Z,15.80
2018-01-08T11:13:41.897Z,17.63
2018-01-08T11:16:17.053Z,17.13
2018-01-08T11:18:52.308Z,16.90
2018-01-08T11:21:26.299Z,14.10
2018-01-08T11:24:00.692Z,15.63
2018-01-08T11:26:33.475Z,18.57
2018-01-08T11:29:05.505Z,19.17
2018-01-08T11:31:34.948Z,17.40
2018-01-08T11:34:03.710Z,19.60
2018-01-08T11:36:44.804Z,20.03
2018-01-08T11:39:13.869Z,18.00
2018-01-08T11:41:48.570Z,21.57
2018-01-08T11:44:22.826Z,19.73
2018-01-08T11:47:18.149Z,18.23
2018-01-08T11:49:53.287Z,22.50
2018-01-08T11:52:23.278Z,19.20
2018-01-08T11:55:02.468Z,20.47
2018-01-08T11:57:33.386Z,22.40
2018-01-08T12:00:06.775Z,19.10
2018-01-08T12:02:37.742Z,18.27
2018-01-08T12:05:05.934Z,15.67
2018-01-08T12:07:34.765Z,17.40
2018-01-08T12:10:06.065Z,17.90
2018-01-08T12:12:36.551Z,16.20
2018-01-08T12:15:15.799Z,17.73
2018-01-08T12:17:45.378Z,20.67
2018-01-08T12:20:20.848Z,16.97
2018-01-08T12:22:52.909Z,17.73
2018-01-08T12:25:22.948Z,17.27
2018-01-08T12:27:52.832Z,20.70
2018-01-08T12:30:43.716Z,18.30
2018-01-08T12:33:13.160Z,16.87
2018-01-08T12:35:44.516Z,18.60
2018-01-08T12:38:15.385Z,20.97
2018-01-08T12:40:45.124Z,18.47
2018-01-08T12:43:13.770Z,18.13
2018-01-08T12:45:43.447Z,25.60
2018-01-08T12:48:14.764Z,20.17
2018-01-08T12:50:45.831Z,18.83
2018-01-08T12:53:20.042Z,18.93
2018-01-08T12:55:53.243Z,19.77
2018-01-08T12:58:23.163Z,25.17
2018-01-08T13:00:56.257Z,22.53
2018-01-08T13:03:27.476Z,22.80
2018-01-08T13:05:58.353Z,19.90
2018-01-08T13:08:27.723Z,19.80
2018-01-08T13:10:57.620Z,20.47
2018-01-08T13:13:26.231Z,24.80
2018-01-08T13:18:33.080Z,19.10
2018-01-08T13:21:01.976Z,18.33
2018-01-08T13:23:31.649Z,23.60
2018-01-08T13:26:04.335Z,22.10
2018-01-08T13:28:37.349Z,20.87
2018-01-08T13:31:07.945Z,23.43
2018-01-08T13:33:39.166Z,19.50
2018-01-08T13:36:14.507Z,37.50
2018-01-08T13:38:47.438Z,20.73
2018-01-08T13:41:17.937Z,19.30
2018-01-08T13:43:48.123Z,22.13
2018-01-08T13:46:17.134Z,23.87
2018-01-08T13:48:47.320Z,24.50
2018-01-08T13:51:17.781Z,21.80
2018-01-08T13:53:47.262Z,22.57
2018-01-08T13:56:16.247Z,19.77
2018-01-08T13:58:44.615Z,20.17
2018-01-08T14:01:15.246Z,23.43
2018-01-08T14:03:48.914Z,16.97
2018-01-08T14:06:17.300Z,22.23
2018-01-08T14:08:46.748Z,21.60
2018-01-08T14:11:16.331Z,17.90
2018-01-08T14:13:47.451Z,20.10
2018-01-08T14:16:16.427Z,20.83
2018-01-08T14:18:48.705Z,18.30
2018-01-08T14:21:18.271Z,21.73
2018-01-08T14:23:53.179Z,19.93
2018-01-08T14:26:22.388Z,24.23
2018-01-08T14:28:56.868Z,20.07
2018-01-08T14:31:27.059Z,24.80
2018-01-08T14:34:01.659Z,21.97
2018-01-08T14:36:36.793Z,19.17
2018-01-08T14:39:13.976Z,19.63
2018-01-08T14:41:45.525Z,19.73
2018-01-08T14:44:16.770Z,21.87
2018-01-08T14:46:51.471Z,16.47
2018-01-08T14:49:20.139Z,21.77
2018-01-08T14:51:48.823Z,20.73
2018-01-08T14:54:17.884Z,20.03
2018-01-08T14:56:53.811Z,18.57
2018-01-08T14:59:22.712Z,19.53
2018-01-08T15:01:58.146Z,17.63
2018-01-08T15:04:31.957Z,20.50
2018-01-08T15:07:01.868Z,20.07
2018-01-08T15:09:30.997Z,19.67
2018-01-08T15:12:01.061Z,19.63
2018-01-08T15:14:31.509Z,23.33
2018-01-08T15:17:04.431Z,20.27
2018-01-08T15:19:34.549Z,24.03
2018-01-08T15:22:04.921Z,20.73
2018-01-08T15:24:35.113Z,21.13
2018-01-08T15:27:05.078Z,22.20
2018-01-08T15:29:37.478Z,22.70
2018-01-08T15:32:07.881Z,18.50
2018-01-08T15:47:32.367Z,22.90
2018-01-08T15:50:02.338Z,27.50
2018-01-08T15:52:30.949Z,22.93
2018-01-08T15:55:04.610Z,24.80
2018-01-08T15:57:34.963Z,21.93
2018-01-08T16:00:06.418Z,22.03
2018-01-08T16:02:51.336Z,21.40
2018-01-08T16:05:27.864Z,27.27
2018-01-08T16:07:58.299Z,21.50
2018-01-08T16:10:28.723Z,20.47
2018-01-08T16:12:57.855Z,25.10
2018-01-08T16:15:26.460Z,23.77
2018-01-08T16:18:05.274Z,23.90
2018-01-08T16:20:36.973Z,26.30
2018-01-08T16:23:06.730Z,24.13
2018-01-08T16:25:34.944Z,24.57
2018-01-08T16:28:04.010Z,23.07
2018-01-08T16:30:32.077Z,21.07
2018-01-08T16:33:14.660Z,20.97
2018-01-08T16:35:43.367Z,24.97
2018-01-08T16:38:12.847Z,22.53
2018-01-08T16:40:45.613Z,26.53
2018-01-08T16:43:16.358Z,25.07
2018-01-08T16:45:50.588Z,22.77
2018-01-08T16:48:20.899Z,23.00
2018-01-08T16:50:56.339Z,24.27
2018-01-08T16:53:28.480Z,28.77
2018-01-08T16:55:59.008Z,22.23
2018-01-08T16:58:27.741Z,24.17
2018-01-08T17:00:58.889Z,22.97
2018-01-08T17:03:36.579Z,19.73
2018-01-08T17:06:06.948Z,23.83
2018-01-08T17:08:40.560Z,24.73
2018-01-08T17:11:10.237Z,22.90
2018-01-08T17:13:47.741Z,20.53
2018-01-08T17:16:19.854Z,20.97
2018-01-08T17:18:49.991Z,24.53
2018-01-08T17:21:20.531Z,25.10
2018-01-08T17:23:50.964Z,21.73
2018-01-08T17:26:21.312Z,24.10
2018-01-08T17:28:55.153Z,24.30
2018-01-08T17:31:28.845Z,27.03
2018-01-08T17:34:01.056Z,26.20
2018-01-08T17:36:41.287Z,23.83
2018-01-08T17:39:09.962Z,22.57
2018-01-08T17:41:47.404Z,24.90
2018-01-08T17:44:16.756Z,22.97
2018-01-08T17:46:52.589Z,20.93
2018-01-08T17:49:23.946Z,26.73
2018-01-08T17:51:55.213Z,22.43
2018-01-08T17:54:27.379Z,27.50
2018-01-08T17:56:57.382Z,23.73
2018-01-08T17:59:27.143Z,25.23
2018-01-08T18:01:56.083Z,25.70
2018-01-08T18:04:47.018Z,23.47
2018-01-08T18:07:19.140Z,24.43
2018-01-08T18:09:56.458Z,23.53
2018-01-08T18:12:29.220Z,23.27
2018-01-08T18:14:58.989Z,23.63
2018-01-08T18:17:33.815Z,22.47
2018-01-08T18:20:05.780Z,23.87
2018-01-08T18:22:38.781Z,24.93
2018-01-08T18:25:15.030Z,23.43
2018-01-08T18:27:53.178Z,21.83
2018-01-08T18:30:21.690Z,23.53
2018-01-08T18:32:51.063Z,23.70
2018-01-08T18:35:22.964Z,24.27
2018-01-08T18:38:00.615Z,21.10
2018-01-08T18:40:35.863Z,24.17
2018-01-08T18:43:04.276Z,24.10
2018-01-08T18:45:38.900Z,24.97
2018-01-08T18:48:12.763Z,27.23
2018-01-08T18:51:06.395Z,26.47
2018-01-08T18:53:42.241Z,25.40
2018-01-08T18:56:19.872Z,24.83
2018-01-08T18:58:56.375Z,27.20
2018-01-08T19:01:34.042Z,25.47
2018-01-08T19:04:13.502Z,29.23
2018-01-08T19:07:28.985Z,61.53
2018-01-08T19:10:00.167Z,24.13
2018-01-08T19:12:30.967Z,27.13
2018-01-08T19:15:10.935Z,27.40
2018-01-08T19:17:42.590Z,32.53
2018-01-08T19:20:25.243Z,27.60
2018-01-08T19:22:56.750Z,28.30
2018-01-08T19:25:30.765Z,28.97
2018-01-08T19:28:14.807Z,56.20
2018-01-08T19:30:59.283Z,38.13
2018-01-08T19:33:28.368Z,42.50
2018-01-08T19:36:13.002Z,32.17
2018-01-08T19:38:46.564Z,29.73
2018-01-08T19:41:20.212Z,31.27
2018-01-08T19:43:56.507Z,25.93
2018-01-08T19:46:30.922Z,27.53
2018-01-08T19:48:59.455Z,29.37
2018-01-08T19:51:38.452Z,29.57
2018-01-08T19:54:08.449Z,29.77
2018-01-08T19:56:39.214Z,34.40
2018-01-08T19:59:15.793Z,34.20
2018-01-08T20:01:49.700Z,33.73
2018-01-08T20:04:37.992Z,26.50
2018-01-08T20:07:06.721Z,28.53
2018-01-08T20:09:42.209Z,26.43
2018-01-08T20:12:11.233Z,26.93
2018-01-08T20:14:50.039Z,73.67
2018-01-08T20:17:22.776Z,27.97
2018-01-08T20:20:03.876Z,35.00
2018-01-08T20:22:33.991Z,33.47
2018-01-08T20:25:10.299Z,34.77
2018-01-08T20:27:40.062Z,27.27
2018-01-08T20:30:15.991Z,26.77
2018-01-08T20:32:49.345Z,29.83
2018-01-08T20:35:29.230Z,29.23
2018-01-08T20:38:01.441Z,31.33
2018-01-08T20:40:35.912Z,27.83
2018-01-08T20:43:13.553Z,32.27
2018-01-08T20:45:48.494Z,29.53
2018-01-08T20:48:34.315Z,28.33
2018-01-08T20:51:11.563Z,29.80
2018-01-08T20:53:40.523Z,28.47
2018-01-08T20:56:21.163Z,29.83
2018-01-08T20:58:52.952Z,29.63
2018-01-08T21:01:29.272Z,35.23
2018-01-08T21:04:09.420Z,32.00
2018-01-08T21:06:44.958Z,33.40
2018-01-08T21:09:19.647Z,31.13
2018-01-08T21:11:53.263Z,32.63
2018-01-08T21:14:29.650Z,31.57
2018-01-08T21:16:58.833Z,30.53
2018-01-08T21:19:44.162Z,30.10
2018-01-08T21:22:18.965Z,28.70
2018-01-08T21:24:57.026Z,32.07
2018-01-08T21:27:39.013Z,28.80
2018-01-08T21:33:18.402Z,31.37
2018-01-08T21:35:49.100Z,32.67
2018-01-08T21:38:38.159Z,33.00
2018-01-08T21:41:06.353Z,28.67
2018-01-08T21:43:47.595Z,34.13
2018-01-08T21:46:24.839Z,36.63
2018-01-08T21:49:01.981Z,30.37
2018-01-08T21:51:43.407Z,31.90
2018-01-08T21:54:22.124Z,33.03
2018-01-08T21:56:56.370Z,35.77
2018-01-08T21:59:26.809Z,30.67
2018-01-08T22:01:59.651Z,33.40
2018-01-08T22:04:33.461Z,30.73
2018-01-08T22:07:10.155Z,30.87
2018-01-08T22:09:44.734Z,33.30
2018-01-08T22:12:13.113Z,29.50
2018-01-08T22:14:58.757Z,27.90
2018-01-08T22:17:29.670Z,29.07
2018-01-08T22:19:59.161Z,29.37
2018-01-08T22:22:41.087Z,30.23
2018-01-08T22:28:39.606Z,28.10
2018-01-08T22:31:15.857Z,30.13
2018-01-08T22:33:48.796Z,34.03
2018-01-08T22:36:30.155Z,32.53
2018-01-08T22:43:09.909Z,31.10
2018-01-08T22:45:44.943Z,35.20
2018-01-08T22:48:23.638Z,31.07
2018-01-08T22:50:55.219Z,31.33
2018-01-08T22:53:39.450Z,31.17
2018-01-08T22:56:15.818Z,31.83
2018-01-08T22:58:54.985Z,36.33
2018-01-08T23:01:31.032Z,34.97
2018-01-08T23:04:09.721Z,36.03
2018-01-08T23:06:48.741Z,36.37
2018-01-08T23:09:32.764Z,32.93
2018-01-08T23:12:12.562Z,33.03
2018-01-08T23:14:47.791Z,34.37
2018-01-08T23:17:33.410Z,34.50
2018-01-08T23:20:07.698Z,32.73
2018-01-08T23:22:48.229Z,34.33
2018-01-08T23:25:24.871Z,32.20
2018-01-08T23:28:07.357Z,35.93
2018-01-08T23:30:50.085Z,36.07
2018-01-08T23:33:19.545Z,34.33
2018-01-08T23:35:54.198Z,32.57
2018-01-08T23:38:29.925Z,32.57
2018-01-08T23:41:07.278Z,31.10
2018-01-08T23:43:47.248Z,31.60
2018-01-08T23:46:34.749Z,35.27
2018-01-08T23:49:09.164Z,34.33
2018-01-08T23:51:57.439Z,37.33
2018-01-08T23:54:33.104Z,33.50
2018-01-08T23:57:06.390Z,34.03
2018-01-08T23:59:53.151Z,34.13
